createdAt,value
2018-12-16T00:00:28.792Z,30.85
2018-12-16T00:01:04.150Z,31.85
2018-12-16T00:01:39.830Z,32.08
2018-12-16T00:02:15.180Z,32.35
2018-12-16T00:02:50.548Z,31.75
2018-12-16T00:03:25.886Z,30.23
2018-12-16T00:04:01.218Z,28.95
2018-12-16T00:04:36.944Z,31.85
2018-12-16T00:05:12.428Z,28.98
2018-12-16T00:05:45.767Z,26.42
2018-12-16T00:06:19.161Z,32.35
2018-12-16T00:06:52.498Z,27.37
2018-12-16T00:07:25.816Z,34.30
2018-12-16T00:07:59.154Z,33.90
2018-12-16T00:08:32.480Z,29.10
2018-12-16T00:09:06.621Z,30.90
2018-12-16T00:09:41.042Z,35.05
2018-12-16T00:10:14.351Z,30.52
2018-12-16T00:10:47.652Z,28.77
2018-12-16T00:11:20.967Z,35.35
2018-12-16T00:11:54.254Z,27.37
2018-12-16T00:12:27.578Z,30.72
2018-12-16T00:13:00.995Z,30.50
2018-12-16T00:13:34.315Z,28.90
2018-12-16T00:14:07.673Z,29.70
2018-12-16T00:14:41.512Z,32.73
2018-12-16T00:15:14.995Z,34.70
2018-12-16T00:15:48.386Z,33.98
2018-12-16T00:16:21.744Z,34.30
2018-12-16T00:16:55.089Z,33.18
2018-12-16T00:17:28.441Z,30.97
2018-12-16T00:18:01.761Z,32.33
2018-12-16T00:18:35.563Z,34.27
2018-12-16T00:19:08.914Z,30.88
2018-12-16T00:19:42.222Z,32.78
2018-12-16T00:20:15.605Z,33.98
2018-12-16T00:20:48.938Z,33.92
2018-12-16T00:21:22.420Z,32.33
2018-12-16T00:21:55.742Z,33.92
2018-12-16T00:22:29.944Z,33.58
2018-12-16T00:23:03.745Z,30.90
2018-12-16T00:23:38.198Z,34.08
2018-12-16T00:24:11.624Z,28.52
2018-12-16T00:24:44.962Z,30.57
2018-12-16T00:25:18.298Z,30.60
2018-12-16T00:25:51.664Z,28.90
2018-12-16T00:27:08.461Z,31.57
2018-12-16T00:27:41.750Z,32.53
2018-12-16T00:28:15.065Z,29.95
2018-12-16T00:28:48.375Z,29.20
2018-12-16T00:29:21.670Z,32.45
2018-12-16T00:29:54.974Z,33.25
2018-12-16T00:30:28.328Z,29.72
2018-12-16T00:31:01.753Z,32.00
2018-12-16T00:31:35.078Z,33.92
2018-12-16T00:32:08.514Z,34.43
2018-12-16T00:32:42.081Z,33.13
2018-12-16T00:33:15.427Z,30.32
2018-12-16T00:33:48.745Z,34.33
2018-12-16T00:34:22.077Z,33.00
2018-12-16T00:34:55.391Z,33.78
2018-12-16T00:35:28.711Z,33.28
2018-12-16T00:36:02.047Z,33.63
2018-12-16T00:36:36.869Z,32.28
2018-12-16T00:37:10.225Z,32.67
2018-12-16T00:37:43.602Z,32.75
2018-12-16T00:38:17.157Z,32.65
2018-12-16T00:38:50.452Z,34.30
2018-12-16T00:39:23.857Z,34.53
2018-12-16T00:39:57.264Z,31.33
2018-12-16T00:40:30.607Z,32.80
2018-12-16T00:41:04.038Z,34.65
2018-12-16T00:41:37.404Z,33.18
2018-12-16T00:42:10.715Z,34.73
2018-12-16T00:42:44.093Z,31.57
2018-12-16T00:43:17.421Z,32.53
2018-12-16T00:43:50.765Z,33.63
2018-12-16T00:44:24.095Z,34.45
2018-12-16T00:44:57.508Z,33.90
2018-12-16T00:45:30.807Z,33.73
2018-12-16T00:46:04.280Z,33.53
2018-12-16T00:46:37.631Z,32.60
2018-12-16T00:47:11.031Z,31.35
2018-12-16T00:47:44.344Z,34.25
2018-12-16T00:48:17.703Z,31.85
2018-12-16T00:48:51.021Z,31.05
2018-12-16T00:49:24.379Z,30.25
2018-12-16T00:49:57.689Z,33.18
2018-12-16T00:50:31.031Z,33.42
2018-12-16T00:51:04.346Z,30.37
2018-12-16T00:51:37.931Z,33.67
2018-12-16T00:52:11.261Z,33.88
2018-12-16T00:52:44.633Z,35.03
2018-12-16T00:53:18.299Z,34.85
2018-12-16T00:53:51.633Z,34.48
2018-12-16T00:54:25.053Z,34.20
2018-12-16T00:54:58.411Z,31.77
2018-12-16T00:55:31.734Z,31.60
2018-12-16T00:56:05.057Z,33.45
2018-12-16T00:56:39.517Z,32.78
2018-12-16T00:57:12.978Z,30.10
2018-12-16T00:57:46.338Z,29.63
2018-12-16T00:58:19.649Z,30.97
2018-12-16T00:58:52.941Z,33.38
2018-12-16T00:59:26.297Z,33.05
2018-12-16T00:59:59.601Z,31.27
2018-12-16T01:00:33.479Z,31.33
2018-12-16T01:01:06.837Z,29.67
2018-12-16T01:01:41.272Z,33.70
2018-12-16T01:02:20.450Z,33.88
2018-12-16T01:02:53.919Z,34.27
2018-12-16T01:03:27.225Z,28.83
2018-12-16T01:04:00.675Z,33.88
2018-12-16T01:04:34.109Z,30.37
2018-12-16T01:05:07.689Z,33.20
2018-12-16T01:05:40.993Z,33.95
2018-12-16T01:06:14.304Z,31.05
2018-12-16T01:06:47.631Z,32.73
2018-12-16T01:07:20.961Z,34.43
2018-12-16T01:07:54.343Z,33.70
2018-12-16T01:08:27.737Z,32.65
2018-12-16T01:09:01.309Z,34.58
2018-12-16T01:09:34.664Z,33.45
2018-12-16T01:10:09.790Z,31.60
2018-12-16T01:10:43.273Z,34.20
2018-12-16T01:11:16.639Z,33.35
2018-12-16T01:11:50.064Z,31.82
2018-12-16T01:12:23.480Z,32.55
2018-12-16T01:12:56.804Z,32.63
2018-12-16T01:13:30.228Z,31.73
2018-12-16T01:14:03.681Z,34.48
2018-12-16T01:14:37.149Z,32.58
2018-12-16T01:15:10.715Z,31.35
2018-12-16T01:15:44.163Z,33.70
2018-12-16T01:16:17.639Z,35.35
2018-12-16T01:16:50.971Z,33.80
2018-12-16T01:17:24.352Z,34.92
2018-12-16T01:17:57.807Z,34.30
2018-12-16T01:18:31.234Z,34.38
2018-12-16T01:19:04.543Z,32.38
2018-12-16T01:19:37.937Z,31.12
2018-12-16T01:20:11.525Z,29.57
2018-12-16T01:20:44.917Z,34.00
2018-12-16T01:21:18.214Z,31.45
2018-12-16T01:21:51.583Z,34.25
2018-12-16T01:22:24.926Z,34.03
2018-12-16T01:22:58.251Z,33.83
2018-12-16T01:23:31.538Z,35.58
2018-12-16T01:24:04.871Z,32.03
2018-12-16T01:24:38.219Z,33.00
2018-12-16T01:25:11.695Z,33.85
2018-12-16T01:25:45.002Z,34.40
2018-12-16T01:26:18.355Z,29.48
2018-12-16T01:26:51.977Z,33.60
2018-12-16T01:27:25.463Z,34.67
2018-12-16T01:27:58.819Z,32.83
2018-12-16T01:28:32.161Z,34.55
2018-12-16T01:29:05.625Z,34.00
2018-12-16T01:29:39.337Z,35.38
2018-12-16T01:30:12.791Z,32.10
2018-12-16T01:30:46.115Z,33.58
2018-12-16T01:31:19.434Z,32.60
2018-12-16T01:31:52.795Z,33.10
2018-12-16T01:32:26.090Z,33.92
2018-12-16T01:32:59.443Z,33.85
2018-12-16T01:33:32.779Z,30.50
2018-12-16T01:34:06.076Z,33.58
2018-12-16T01:34:39.738Z,34.73
2018-12-16T01:35:13.063Z,33.88
2018-12-16T01:35:46.480Z,31.85
2018-12-16T01:36:19.782Z,32.50
2018-12-16T01:36:53.235Z,32.83
2018-12-16T01:37:26.581Z,34.13
2018-12-16T01:37:59.889Z,33.78
2018-12-16T01:38:33.327Z,29.75
2018-12-16T01:39:07.335Z,33.13
2018-12-16T01:39:41.768Z,34.33
2018-12-16T01:40:15.112Z,32.73
2018-12-16T01:40:48.461Z,33.60
2018-12-16T01:41:21.809Z,33.50
2018-12-16T01:41:55.145Z,34.83
2018-12-16T01:42:28.468Z,35.60
2018-12-16T01:43:01.813Z,35.00
2018-12-16T01:43:35.161Z,34.98
2018-12-16T01:44:08.467Z,35.75
2018-12-16T01:44:42.148Z,34.20
2018-12-16T01:45:15.473Z,34.70
2018-12-16T01:45:48.819Z,33.63
2018-12-16T01:46:22.213Z,34.35
2018-12-16T01:46:55.567Z,33.78
2018-12-16T01:47:28.913Z,33.28
2018-12-16T01:48:02.267Z,32.48
2018-12-16T01:48:35.747Z,33.40
2018-12-16T01:49:09.161Z,32.53
2018-12-16T01:49:42.551Z,33.00
2018-12-16T01:50:15.951Z,34.53
2018-12-16T01:50:49.305Z,33.98
2018-12-16T01:51:22.768Z,34.30
2018-12-16T01:51:56.191Z,35.65
2018-12-16T01:52:29.579Z,35.00
2018-12-16T01:53:02.962Z,36.03
2018-12-16T01:53:36.409Z,35.58
2018-12-16T01:54:09.725Z,34.55
2018-12-16T01:54:43.085Z,32.03
2018-12-16T01:55:16.543Z,33.53
2018-12-16T01:55:49.918Z,34.00
2018-12-16T01:56:23.277Z,32.38
2018-12-16T01:56:56.565Z,34.58
2018-12-16T01:57:29.913Z,34.50
2018-12-16T01:58:03.427Z,33.88
2018-12-16T01:58:36.737Z,32.50
2018-12-16T01:59:10.091Z,35.73
2018-12-16T01:59:43.535Z,34.33
2018-12-16T02:00:17.089Z,33.38
2018-12-16T02:00:50.511Z,31.25
2018-12-16T02:01:23.983Z,33.73
2018-12-16T02:01:57.418Z,36.65
2018-12-16T02:02:30.765Z,31.65
2018-12-16T02:03:04.242Z,36.60
2018-12-16T02:03:37.589Z,34.48
2018-12-16T02:04:10.991Z,36.05
2018-12-16T02:04:44.579Z,34.85
2018-12-16T02:05:18.011Z,33.40
2018-12-16T02:05:51.383Z,33.40
2018-12-16T02:06:24.707Z,34.30
2018-12-16T02:06:58.026Z,34.88
2018-12-16T02:07:31.357Z,29.95
2018-12-16T02:08:04.687Z,33.08
2018-12-16T02:08:38.251Z,34.55
2018-12-16T02:09:12.194Z,33.75
2018-12-16T02:09:45.535Z,32.35
2018-12-16T02:10:18.950Z,32.15
2018-12-16T02:10:52.325Z,35.63
2018-12-16T02:11:25.630Z,35.30
2018-12-16T02:11:59.049Z,33.80
2018-12-16T02:12:32.405Z,33.78
2018-12-16T02:13:05.857Z,33.65
2018-12-16T02:13:39.198Z,34.27
2018-12-16T02:14:12.570Z,34.40
2018-12-16T02:14:45.943Z,32.10
2018-12-16T02:15:19.263Z,33.75
2018-12-16T02:15:52.661Z,31.82
2018-12-16T02:16:26.073Z,32.35
2018-12-16T02:16:59.387Z,33.53
2018-12-16T02:17:32.713Z,31.42
2018-12-16T02:18:06.028Z,33.35
2018-12-16T02:18:39.448Z,36.40
2018-12-16T02:19:12.751Z,35.52
2018-12-16T02:19:46.095Z,34.70
2018-12-16T02:20:19.418Z,31.55
2018-12-16T02:20:52.849Z,33.83
2018-12-16T02:21:26.180Z,32.93
2018-12-16T02:21:59.641Z,33.60
2018-12-16T02:22:33.023Z,33.88
2018-12-16T02:23:06.417Z,33.92
2018-12-16T02:23:39.775Z,32.53
2018-12-16T02:24:13.102Z,32.05
2018-12-16T02:24:46.427Z,31.73
2018-12-16T02:25:19.892Z,34.18
2018-12-16T02:25:53.223Z,34.35
2018-12-16T02:26:26.504Z,35.55
2018-12-16T02:26:59.835Z,35.45
2018-12-16T02:27:33.250Z,34.63
2018-12-16T02:28:06.646Z,31.48
2018-12-16T02:28:39.980Z,35.68
2018-12-16T02:29:13.347Z,32.78
2018-12-16T02:29:46.681Z,36.13
2018-12-16T02:30:25.727Z,32.30
2018-12-16T02:30:59.083Z,34.38
2018-12-16T02:31:32.432Z,34.67
2018-12-16T02:32:05.780Z,31.82
2018-12-16T02:32:39.107Z,30.37
2018-12-16T02:33:12.465Z,35.78
2018-12-16T02:33:45.854Z,34.63
2018-12-16T02:34:19.186Z,34.65
2018-12-16T02:34:52.674Z,35.15
2018-12-16T02:35:26.142Z,35.83
2018-12-16T02:35:59.461Z,33.60
2018-12-16T02:36:32.800Z,36.00
2018-12-16T02:37:06.153Z,32.88
2018-12-16T02:37:39.442Z,36.10
2018-12-16T02:38:12.779Z,32.70
2018-12-16T02:38:46.129Z,32.60
2018-12-16T02:39:19.476Z,34.63
2018-12-16T02:39:52.934Z,34.70
2018-12-16T02:40:26.269Z,35.15
2018-12-16T02:41:00.751Z,34.03
2018-12-16T02:41:34.207Z,32.17
2018-12-16T02:42:07.534Z,31.77
2018-12-16T02:42:40.850Z,31.93
2018-12-16T02:43:14.212Z,35.65
2018-12-16T02:43:47.617Z,35.20
2018-12-16T02:44:21.075Z,35.33
2018-12-16T02:44:54.528Z,36.17
2018-12-16T02:45:27.887Z,34.88
2018-12-16T02:46:01.311Z,31.25
2018-12-16T02:46:34.695Z,33.92
2018-12-16T02:47:08.063Z,34.40
2018-12-16T02:47:41.440Z,33.10
2018-12-16T02:48:14.798Z,35.43
2018-12-16T02:48:48.202Z,34.95
2018-12-16T02:49:21.567Z,33.55
2018-12-16T02:49:54.904Z,33.28
2018-12-16T02:50:28.229Z,35.38
2018-12-16T02:51:01.556Z,36.23
2018-12-16T02:51:34.966Z,33.95
2018-12-16T02:52:08.398Z,34.40
2018-12-16T02:52:42.279Z,34.73
2018-12-16T02:53:15.682Z,35.45
2018-12-16T02:53:49.081Z,35.50
2018-12-16T02:54:23.519Z,32.80
2018-12-16T02:54:56.855Z,34.90
2018-12-16T02:55:30.192Z,33.28
2018-12-16T02:56:03.770Z,34.53
2018-12-16T02:56:37.129Z,35.33
2018-12-16T02:57:10.486Z,36.42
2018-12-16T02:57:43.841Z,32.25
2018-12-16T02:58:17.205Z,34.03
2018-12-16T02:58:50.678Z,35.92
2018-12-16T02:59:24.030Z,32.78
2018-12-16T02:59:57.360Z,35.58
2018-12-16T03:00:30.696Z,35.20
2018-12-16T03:01:04.168Z,36.08
2018-12-16T03:02:26.078Z,34.88
2018-12-16T03:02:59.480Z,35.00
2018-12-16T03:03:33.057Z,32.15
2018-12-16T03:04:06.488Z,34.08
2018-12-16T03:04:39.858Z,35.75
2018-12-16T03:05:14.409Z,33.92
2018-12-16T03:05:47.834Z,35.60
2018-12-16T03:06:21.262Z,35.20
2018-12-16T03:06:54.603Z,33.18
2018-12-16T03:07:27.894Z,34.98
2018-12-16T03:08:01.229Z,35.92
2018-12-16T03:08:34.532Z,34.38
2018-12-16T03:09:08.142Z,32.60
2018-12-16T03:09:42.566Z,35.05
2018-12-16T03:10:15.901Z,32.80
2018-12-16T03:10:49.211Z,34.27
2018-12-16T03:11:22.600Z,34.70
2018-12-16T03:11:55.945Z,35.58
2018-12-16T03:12:29.378Z,33.00
2018-12-16T03:13:02.692Z,32.83
2018-12-16T03:13:36.087Z,34.75
2018-12-16T03:14:09.424Z,34.95
2018-12-16T03:14:42.752Z,35.30
2018-12-16T03:15:16.166Z,35.68
2018-12-16T03:15:49.620Z,36.15
2018-12-16T03:16:23.075Z,32.48
2018-12-16T03:16:57.749Z,33.38
2018-12-16T03:17:31.068Z,34.75
2018-12-16T03:18:04.410Z,32.93
2018-12-16T03:18:38.963Z,33.73
2018-12-16T03:19:12.366Z,34.18
2018-12-16T03:19:45.734Z,33.98
2018-12-16T03:20:19.061Z,33.13
2018-12-16T03:20:52.359Z,33.92
2018-12-16T03:21:25.659Z,34.48
2018-12-16T03:21:58.980Z,34.85
2018-12-16T03:22:32.364Z,34.00
2018-12-16T03:23:11.936Z,35.60
2018-12-16T03:23:41.029Z,35.48
2018-12-16T03:24:14.794Z,35.00
2018-12-16T03:24:48.221Z,34.38
2018-12-16T03:25:21.713Z,35.43
2018-12-16T03:25:55.322Z,35.17
2018-12-16T03:26:35.635Z,34.03
2018-12-16T03:27:04.007Z,34.88
2018-12-16T03:27:37.605Z,36.05
2018-12-16T03:28:10.923Z,35.43
2018-12-16T03:28:44.235Z,35.25
2018-12-16T03:29:17.564Z,35.65
2018-12-16T03:29:50.850Z,35.80
2018-12-16T03:30:24.191Z,35.83
2018-12-16T03:30:57.594Z,34.70
2018-12-16T03:31:30.930Z,33.75
2018-12-16T03:32:04.402Z,34.00
2018-12-16T03:32:37.732Z,35.75
2018-12-16T03:33:11.080Z,35.43
2018-12-16T03:33:44.445Z,35.75
2018-12-16T03:34:17.791Z,34.78
2018-12-16T03:34:51.094Z,33.95
2018-12-16T03:35:24.499Z,34.80
2018-12-16T03:35:57.821Z,33.53
2018-12-16T03:36:31.171Z,36.15
2018-12-16T03:37:04.660Z,34.95
2018-12-16T03:37:37.983Z,34.03
2018-12-16T03:38:11.341Z,33.85
2018-12-16T03:38:44.737Z,37.80
2018-12-16T03:39:18.040Z,33.67
2018-12-16T03:39:51.368Z,35.43
2018-12-16T03:40:24.798Z,35.43
2018-12-16T03:40:58.341Z,33.55
2018-12-16T03:41:31.686Z,33.40
2018-12-16T03:42:05.043Z,34.85
2018-12-16T03:42:38.415Z,36.45
2018-12-16T03:43:11.767Z,33.53
2018-12-16T03:43:45.133Z,33.00
2018-12-16T03:44:18.504Z,30.72
2018-12-16T03:44:51.838Z,36.48
2018-12-16T03:45:25.175Z,35.63
2018-12-16T03:45:58.505Z,36.42
2018-12-16T03:46:32.570Z,35.63
2018-12-16T03:47:05.931Z,33.67
2018-12-16T03:47:39.253Z,36.23
2018-12-16T03:48:12.558Z,35.60
2018-12-16T03:48:45.879Z,35.83
2018-12-16T03:49:19.182Z,35.78
2018-12-16T03:49:52.616Z,32.83
2018-12-16T03:50:26.018Z,34.73
2018-12-16T03:50:59.331Z,36.08
2018-12-16T03:51:32.631Z,35.75
2018-12-16T03:52:07.055Z,33.98
2018-12-16T03:52:40.510Z,35.58
2018-12-16T03:53:19.660Z,36.35
2018-12-16T03:53:49.375Z,35.03
2018-12-16T03:54:22.682Z,35.92
2018-12-16T03:54:56.009Z,36.60
2018-12-16T03:55:29.437Z,36.85
2018-12-16T03:56:02.779Z,35.98
2018-12-16T03:56:36.093Z,37.08
2018-12-16T03:57:09.442Z,33.80
2018-12-16T03:57:42.766Z,34.83
2018-12-16T03:58:16.111Z,35.35
2018-12-16T03:59:07.162Z,35.50
2018-12-16T03:59:40.692Z,37.05
2018-12-16T04:00:14.010Z,35.65
2018-12-16T04:00:47.340Z,35.33
2018-12-16T04:01:20.676Z,33.08
2018-12-16T04:01:54.129Z,34.70
2018-12-16T04:02:28.563Z,36.28
2018-12-16T04:03:01.847Z,36.53
2018-12-16T04:03:35.305Z,35.60
2018-12-16T04:04:08.698Z,36.13
2018-12-16T04:04:41.993Z,36.08
2018-12-16T04:05:15.325Z,36.10
2018-12-16T04:05:48.674Z,35.35
2018-12-16T04:06:21.966Z,33.25
2018-12-16T04:06:55.418Z,32.55
2018-12-16T04:07:28.837Z,35.10
2018-12-16T04:08:02.177Z,34.63
2018-12-16T04:08:35.491Z,34.78
2018-12-16T04:09:08.845Z,35.13
2018-12-16T04:09:42.129Z,35.68
2018-12-16T04:10:15.443Z,35.23
2018-12-16T04:10:48.771Z,33.50
2018-12-16T04:11:22.095Z,31.80
2018-12-16T04:12:04.173Z,36.25
2018-12-16T04:12:37.507Z,35.35
2018-12-16T04:13:10.897Z,34.60
2018-12-16T04:13:44.233Z,35.80
2018-12-16T04:14:19.606Z,35.75
2018-12-16T04:14:54.976Z,37.05
2018-12-16T04:15:28.356Z,35.05
2018-12-16T04:16:01.667Z,35.60
2018-12-16T04:16:35.025Z,32.17
2018-12-16T04:17:08.371Z,35.20
2018-12-16T04:17:41.833Z,35.68
2018-12-16T04:18:15.157Z,35.70
2018-12-16T04:18:48.482Z,34.65
2018-12-16T04:19:21.847Z,34.80
2018-12-16T04:19:55.148Z,32.03
2018-12-16T04:20:28.427Z,34.23
2018-12-16T04:21:01.754Z,35.58
2018-12-16T04:21:35.090Z,35.83
2018-12-16T04:22:08.419Z,32.42
2018-12-16T04:22:41.733Z,35.83
2018-12-16T04:23:15.025Z,34.53
2018-12-16T04:23:48.333Z,35.20
2018-12-16T04:24:21.683Z,36.00
2018-12-16T04:24:55.021Z,35.78
2018-12-16T04:25:28.470Z,35.10
2018-12-16T04:26:01.777Z,33.85
2018-12-16T04:26:35.104Z,35.17
2018-12-16T04:27:08.437Z,34.98
2018-12-16T04:27:41.770Z,35.15
2018-12-16T04:28:15.268Z,34.83
2018-12-16T04:28:48.566Z,36.33
2018-12-16T04:29:21.867Z,34.85
2018-12-16T04:29:55.187Z,34.25
2018-12-16T04:30:28.488Z,34.43
2018-12-16T04:31:01.810Z,31.12
2018-12-16T04:31:35.113Z,34.48
2018-12-16T04:32:08.428Z,35.78
2018-12-16T04:32:41.786Z,35.90
2018-12-16T04:33:15.292Z,33.78
2018-12-16T04:33:48.605Z,31.50
2018-12-16T04:34:21.951Z,34.73
2018-12-16T04:34:55.233Z,34.85
2018-12-16T04:35:28.536Z,34.60
2018-12-16T04:36:01.859Z,33.73
2018-12-16T04:36:42.113Z,35.83
2018-12-16T04:37:15.425Z,35.40
2018-12-16T04:37:48.743Z,34.73
2018-12-16T04:38:22.068Z,35.92
2018-12-16T04:38:55.413Z,35.88
2018-12-16T04:39:28.780Z,35.25
2018-12-16T04:40:02.257Z,35.08
2018-12-16T04:40:35.729Z,34.98
2018-12-16T04:41:09.026Z,36.00
2018-12-16T04:41:42.342Z,35.28
2018-12-16T04:42:15.646Z,36.00
2018-12-16T04:42:48.953Z,34.48
2018-12-16T04:43:22.254Z,36.17
2018-12-16T04:43:55.596Z,35.08
2018-12-16T04:44:28.954Z,35.00
2018-12-16T04:45:02.277Z,35.08
2018-12-16T04:45:37.191Z,34.90
2018-12-16T04:46:10.592Z,37.17
2018-12-16T04:46:44.024Z,36.80
2018-12-16T04:47:17.400Z,33.10
2018-12-16T04:47:50.743Z,36.73
2018-12-16T04:48:24.083Z,36.05
2018-12-16T04:48:57.385Z,34.85
2018-12-16T04:49:30.713Z,35.40
2018-12-16T04:50:05.409Z,33.92
2018-12-16T04:50:38.970Z,34.50
2018-12-16T04:51:12.399Z,36.53
2018-12-16T04:51:45.728Z,33.60
2018-12-16T04:52:19.093Z,35.15
2018-12-16T04:52:52.443Z,35.30
2018-12-16T04:53:25.758Z,35.98
2018-12-16T04:53:59.101Z,34.05
2018-12-16T04:54:32.439Z,34.40
2018-12-16T04:55:05.958Z,36.30
2018-12-16T04:55:39.280Z,35.70
2018-12-16T04:56:12.602Z,33.65
2018-12-16T04:56:45.903Z,35.80
2018-12-16T04:57:19.231Z,36.55
2018-12-16T04:57:52.562Z,35.73
2018-12-16T04:58:25.950Z,36.20
2018-12-16T04:58:59.270Z,34.92
2018-12-16T04:59:32.626Z,36.03
2018-12-16T05:00:06.095Z,36.75
2018-12-16T05:00:39.419Z,35.65
2018-12-16T05:01:12.724Z,34.65
2018-12-16T05:01:46.046Z,35.15
2018-12-16T05:02:19.390Z,35.73
2018-12-16T05:02:52.720Z,35.68
2018-12-16T05:03:26.042Z,35.63
2018-12-16T05:03:59.432Z,33.80
2018-12-16T05:04:32.763Z,35.03
2018-12-16T05:05:06.427Z,36.40
2018-12-16T05:05:39.782Z,35.08
2018-12-16T05:06:13.170Z,35.83
2018-12-16T05:06:46.511Z,37.25
2018-12-16T05:07:19.854Z,36.98
2018-12-16T05:07:53.390Z,35.13
2018-12-16T05:08:26.718Z,35.60
2018-12-16T05:09:00.052Z,34.92
2018-12-16T05:09:33.401Z,36.68
2018-12-16T05:10:27.713Z,36.33
2018-12-16T05:11:01.056Z,35.75
2018-12-16T05:11:34.780Z,36.85
2018-12-16T05:12:08.098Z,35.60
2018-12-16T05:12:41.401Z,34.30
2018-12-16T05:13:14.818Z,36.73
2018-12-16T05:13:48.205Z,36.65
2018-12-16T05:14:21.513Z,35.20
2018-12-16T05:14:54.894Z,35.80
2018-12-16T05:15:28.217Z,36.05
2018-12-16T05:16:01.626Z,36.70
2018-12-16T05:16:35.008Z,36.28
2018-12-16T05:17:08.502Z,38.13
2018-12-16T05:17:41.850Z,35.45
2018-12-16T05:18:15.213Z,36.38
2018-12-16T05:18:48.534Z,36.75
2018-12-16T05:19:21.880Z,37.73
2018-12-16T05:19:56.159Z,37.50
2018-12-16T05:20:29.451Z,36.60
2018-12-16T05:21:02.754Z,37.60
2018-12-16T05:21:36.096Z,36.00
2018-12-16T05:22:09.422Z,36.80
2018-12-16T05:22:42.818Z,38.83
2018-12-16T05:23:16.114Z,33.92
2018-12-16T05:23:49.446Z,36.10
2018-12-16T05:24:22.780Z,35.52
2018-12-16T05:24:56.132Z,36.13
2018-12-16T05:25:29.457Z,36.95
2018-12-16T05:26:02.918Z,38.23
2018-12-16T05:26:36.282Z,38.25
2018-12-16T05:27:09.618Z,37.95
2018-12-16T05:27:42.957Z,36.80
2018-12-16T05:28:16.289Z,38.24
2018-12-16T05:28:49.616Z,31.55
2018-12-16T05:29:22.955Z,37.00
2018-12-16T05:29:56.358Z,37.93
2018-12-16T05:30:29.690Z,35.52
2018-12-16T05:31:03.056Z,35.23
2018-12-16T05:31:36.400Z,36.83
2018-12-16T05:32:09.742Z,35.75
2018-12-16T05:32:43.130Z,37.65
2018-12-16T05:33:16.444Z,36.55
2018-12-16T05:33:49.755Z,37.28
2018-12-16T05:34:23.103Z,36.93
2018-12-16T05:34:56.462Z,37.40
2018-12-16T05:35:29.806Z,38.20
2018-12-16T05:36:03.146Z,36.88
2018-12-16T05:36:36.447Z,35.85
2018-12-16T05:37:09.774Z,36.88
2018-12-16T05:37:43.124Z,39.35
2018-12-16T05:38:16.439Z,37.48
2018-12-16T05:38:49.808Z,37.05
2018-12-16T05:39:23.248Z,36.08
2018-12-16T05:39:56.582Z,36.85
2018-12-16T05:40:29.948Z,37.28
2018-12-16T05:41:03.355Z,36.13
2018-12-16T05:41:36.699Z,37.03
2018-12-16T05:42:10.026Z,36.68
2018-12-16T05:42:43.462Z,37.48
2018-12-16T05:43:16.804Z,36.55
2018-12-16T05:43:50.157Z,37.58
2018-12-16T05:44:23.475Z,38.67
2018-12-16T05:44:56.794Z,37.08
2018-12-16T05:45:30.233Z,37.20
2018-12-16T05:46:03.651Z,38.15
2018-12-16T05:46:36.968Z,37.40
2018-12-16T05:47:10.327Z,37.33
2018-12-16T05:47:43.674Z,37.03
2018-12-16T05:48:16.975Z,36.28
2018-12-16T05:48:50.278Z,36.30
2018-12-16T05:49:23.576Z,38.28
2018-12-16T05:49:57.078Z,38.35
2018-12-16T05:50:30.428Z,37.95
2018-12-16T05:51:04.005Z,38.05
2018-12-16T05:51:37.300Z,36.77
2018-12-16T05:52:10.618Z,38.88
2018-12-16T05:52:43.981Z,37.78
2018-12-16T05:53:17.316Z,37.38
2018-12-16T05:53:50.635Z,36.75
2018-12-16T05:54:24.022Z,37.30
2018-12-16T05:54:57.356Z,37.10
2018-12-16T05:55:30.739Z,37.73
2018-12-16T05:56:04.057Z,35.17
2018-12-16T05:56:37.436Z,37.08
2018-12-16T05:57:10.781Z,36.90
2018-12-16T05:57:44.108Z,38.67
2018-12-16T05:58:17.450Z,39.38
2018-12-16T05:58:50.780Z,37.10
2018-12-16T05:59:24.110Z,36.90
2018-12-16T05:59:57.521Z,35.65
2018-12-16T06:00:32.379Z,36.73
2018-12-16T06:01:06.100Z,38.02
2018-12-16T06:01:39.407Z,39.15
2018-12-16T06:02:12.766Z,37.42
2018-12-16T06:02:46.089Z,37.10
2018-12-16T06:03:19.438Z,36.50
2018-12-16T06:03:52.806Z,37.45
2018-12-16T06:04:26.206Z,38.67
2018-12-16T06:04:59.595Z,37.33
2018-12-16T06:05:32.932Z,37.88
2018-12-16T06:06:06.398Z,37.58
2018-12-16T06:06:39.756Z,36.77
2018-12-16T06:07:13.125Z,38.23
2018-12-16T06:07:46.527Z,38.42
2018-12-16T06:08:19.839Z,37.28
2018-12-16T06:08:53.126Z,37.75
2018-12-16T06:09:26.450Z,37.98
2018-12-16T06:09:59.812Z,38.25
2018-12-16T06:10:33.144Z,38.30
2018-12-16T06:11:06.595Z,36.95
2018-12-16T06:11:39.928Z,37.70
2018-12-16T06:12:13.233Z,36.68
2018-12-16T06:12:46.563Z,37.48
2018-12-16T06:13:19.896Z,38.10
2018-12-16T06:13:53.215Z,35.48
2018-12-16T06:14:26.619Z,37.50
2018-12-16T06:14:59.959Z,35.17
2018-12-16T06:15:33.423Z,37.73
2018-12-16T06:16:06.784Z,37.65
2018-12-16T06:16:40.121Z,37.67
2018-12-16T06:17:13.475Z,37.85
2018-12-16T06:17:46.809Z,38.42
2018-12-16T06:18:20.137Z,38.30
2018-12-16T06:18:53.469Z,36.55
2018-12-16T06:19:26.783Z,37.80
2018-12-16T06:20:00.089Z,37.70
2018-12-16T06:20:33.590Z,39.08
2018-12-16T06:21:06.918Z,38.25
2018-12-16T06:21:41.265Z,38.83
2018-12-16T06:22:14.559Z,38.33
2018-12-16T06:22:47.898Z,35.58
2018-12-16T06:23:21.394Z,38.48
2018-12-16T06:23:55.693Z,37.58
2018-12-16T06:24:29.481Z,37.13
2018-12-16T06:25:03.094Z,37.13
2018-12-16T06:25:36.387Z,39.27
2018-12-16T06:26:09.701Z,37.75
2018-12-16T06:26:43.065Z,38.42
2018-12-16T06:27:16.391Z,37.38
2018-12-16T06:27:49.779Z,35.33
2018-12-16T06:28:23.073Z,35.35
2018-12-16T06:28:56.671Z,38.85
2018-12-16T06:29:30.035Z,38.63
2018-12-16T06:30:04.413Z,39.73
2018-12-16T06:30:38.069Z,37.45
2018-12-16T06:31:11.391Z,37.00
2018-12-16T06:31:44.738Z,38.45
2018-12-16T06:32:18.043Z,38.88
2018-12-16T06:32:51.378Z,38.02
2018-12-16T06:33:24.727Z,38.20
2018-12-16T06:33:58.053Z,39.13
2018-12-16T06:34:31.399Z,38.92
2018-12-16T06:35:04.917Z,37.80
2018-12-16T06:35:39.566Z,37.95
2018-12-16T06:36:12.873Z,38.15
2018-12-16T06:36:46.333Z,38.90
2018-12-16T06:37:19.643Z,37.53
2018-12-16T06:37:52.930Z,37.50
2018-12-16T06:38:26.253Z,38.55
2018-12-16T06:38:59.609Z,39.73
2018-12-16T06:39:32.943Z,39.08
2018-12-16T06:40:06.430Z,35.73
2018-12-16T06:40:39.764Z,39.27
2018-12-16T06:41:13.189Z,38.92
2018-12-16T06:41:46.501Z,38.45
2018-12-16T06:42:19.812Z,38.02
2018-12-16T06:42:53.130Z,37.85
2018-12-16T06:43:26.441Z,38.30
2018-12-16T06:43:59.797Z,39.23
2018-12-16T06:44:33.239Z,40.05
2018-12-16T06:45:06.751Z,38.08
2018-12-16T06:45:40.076Z,38.67
2018-12-16T06:46:13.433Z,38.44
2018-12-16T06:46:46.765Z,38.85
2018-12-16T06:47:20.107Z,39.67
2018-12-16T06:47:53.465Z,38.73
2018-12-16T06:48:26.789Z,39.10
2018-12-16T06:49:00.127Z,39.18
2018-12-16T06:49:33.459Z,39.00
2018-12-16T06:50:07.490Z,39.90
2018-12-16T06:50:40.808Z,39.85
2018-12-16T06:51:14.144Z,40.75
2018-12-16T06:51:47.451Z,39.33
2018-12-16T06:52:20.783Z,39.75
2018-12-16T06:52:54.086Z,39.15
2018-12-16T06:53:27.423Z,40.55
2018-12-16T06:54:02.594Z,40.20
2018-12-16T06:54:36.114Z,39.48
2018-12-16T06:55:09.693Z,38.98
2018-12-16T06:55:43.465Z,39.13
2018-12-16T06:56:17.048Z,39.42
2018-12-16T06:56:50.355Z,40.60
2018-12-16T06:57:23.676Z,35.52
2018-12-16T06:57:56.995Z,41.63
2018-12-16T06:58:30.319Z,39.38
2018-12-16T06:59:03.799Z,39.35
2018-12-16T06:59:37.133Z,38.95
2018-12-16T07:00:10.623Z,40.52
2018-12-16T07:00:43.963Z,40.60
2018-12-16T07:01:17.317Z,40.25
2018-12-16T07:01:50.769Z,40.25
2018-12-16T07:02:24.093Z,39.50
2018-12-16T07:02:57.625Z,39.23
2018-12-16T07:03:30.965Z,39.42
2018-12-16T07:04:04.318Z,38.95
2018-12-16T07:04:37.806Z,40.78
2018-12-16T07:05:11.183Z,39.35
2018-12-16T07:05:44.514Z,39.83
2018-12-16T07:06:18.368Z,39.35
2018-12-16T07:06:53.165Z,39.75
2018-12-16T07:07:26.731Z,39.83
2018-12-16T07:08:00.086Z,36.73
2018-12-16T07:08:34.594Z,39.15
2018-12-16T07:09:07.930Z,39.98
2018-12-16T07:09:42.399Z,41.00
2018-12-16T07:10:16.064Z,39.55
2018-12-16T07:10:49.409Z,39.13
2018-12-16T07:11:22.777Z,39.85
2018-12-16T07:11:56.209Z,39.53
2018-12-16T07:12:29.663Z,38.78
2018-12-16T07:13:04.255Z,40.70
2018-12-16T07:13:37.614Z,38.38